Frank Wiley Field Miles City US
ICAO: KMLS
IATA: MLS
Category: Medium
Scheduled Services: Yes

Elevation: 2630 ft
TransAlt. 18000 ft.

Airport Communications:
ASOS:135.575
GREAT FALLS RDO:122.2
CTAF/UNICOM:123

KMLS Zoom In..

Runways:

(A) RW 04 length 5680 ft width 75 ft
---- / hdg 40

(B) RW 12 length 5628 ft width 100 ft
---- / hdg 123

(C) RW 22 length 5680 ft width 75 ft
---- / hdg 220

(D) RW 30 length 5628 ft width 100 ft
---- / hdg 303

Location; KMLS
Day. 20 / Time. 16.53 Zulu
* Altimeter: 30.14
* Temperature: 17° c. 62.6°f.
* Wind from: 140° Speed 15 kn with Gusts up to 21 kn.
Dewpoint: 06° c.
Visibility: 10 Statute Miles.
Clouds: Clear (automated report).

KMLS 201653Z AUTO 14015G21KT 10SM CLR 17/06 A3014 RMK AO2 PK WND 14026/1602 SLP201 T01670056


Wind From 140°
Speed 15 kn.

 
 
jpsmedia.com for Web Design SOUNDCLOUD worldairports.se 2018   terms of use